Time;durP1;ratioP1;P1;durP2;ratioP2;P2;SDS_P1;SDS_P2;PMS_P1;PMS_P2;Temp;Humidity;BMP_temperature;BMP_pressure;BME280_temperature;BME280_humidity;BME280_pressure;Samples;Min_cycle;Max_cycle;Signal;HPM_P1;HPM_P2
2021/09/16 00:01:37;;;;;;;3.60;3.30;;;;;;;18.19;100.00;97979.38;5157579;27;20228;-67
2021/09/16 00:04:05;;;;;;;3.40;3.10;;;;;;;18.24;100.00;97982.41;5157463;27;20228;-67
2021/09/16 00:06:31;;;;;;;2.77;2.57;;;;;;;18.29;100.00;97976.59;5156999;27;20720;-67
2021/09/16 00:08:58;;;;;;;3.10;2.90;;;;;;;18.32;100.00;97987.00;5157447;27;20216;-67
2021/09/16 00:11:24;;;;;;;3.40;3.10;;;;;;;18.35;100.00;97982.19;5157177;27;20220;-67
2021/09/16 00:13:52;;;;;;;3.47;3.17;;;;;;;18.33;100.00;97981.50;5157247;27;20219;-67
2021/09/16 00:16:19;;;;;;;3.37;3.07;;;;;;;18.27;100.00;97983.94;5157279;27;20217;-67
2021/09/16 00:18:45;;;;;;;3.33;2.90;;;;;;;18.14;100.00;97976.34;5156911;27;20213;-67
2021/09/16 00:21:12;;;;;;;3.40;3.07;;;;;;;18.05;100.00;97979.09;5157071;27;20204;-67
2021/09/16 00:23:38;;;;;;;3.83;3.10;;;;;;;18.00;100.00;97974.22;5156925;27;20209;-67
2021/09/16 00:26:05;;;;;;;3.60;3.23;;;;;;;18.01;100.00;97991.97;5155108;27;20233;-67
2021/09/16 00:28:32;;;;;;;3.47;3.10;;;;;;;18.04;100.00;97991.63;5157015;27;20227;-67
2021/09/16 00:30:59;;;;;;;3.00;2.70;;;;;;;18.05;100.00;97987.94;5156671;27;20230;-67
2021/09/16 00:33:26;;;;;;;3.53;2.77;;;;;;;18.03;100.00;97992.63;5156747;27;20217;-66
2021/09/16 00:35:52;;;;;;;2.97;2.67;;;;;;;17.97;100.00;97990.56;5156784;27;20208;-67
2021/09/16 00:38:19;;;;;;;3.03;2.70;;;;;;;17.95;100.00;97989.91;5156769;27;20219;-67
2021/09/16 00:40:45;;;;;;;2.80;2.60;;;;;;;17.97;100.00;97982.56;5156722;27;20213;-67
2021/09/16 00:43:12;;;;;;;3.23;2.40;;;;;;;17.97;100.00;97987.91;5156573;27;20212;-66
2021/09/16 00:45:38;;;;;;;3.43;3.13;;;;;;;17.98;100.00;97997.59;5156845;27;20573;-67
2021/09/16 00:48:07;;;;;;;3.40;2.87;;;;;;;18.02;100.00;97995.44;5151496;27;20710;-66
2021/09/16 00:50:35;;;;;;;3.33;2.80;;;;;;;18.03;100.00;97992.63;5155728;27;20212;-66
2021/09/16 00:53:01;;;;;;;2.80;2.60;;;;;;;18.07;100.00;97988.66;5153760;27;20220;-67
2021/09/16 00:55:28;;;;;;;3.27;2.70;;;;;;;18.06;100.00;97986.97;5156419;27;20215;-67
2021/09/16 00:57:56;;;;;;;4.20;2.83;;;;;;;18.06;100.00;97995.00;5156054;27;20213;-66
2021/09/16 01:00:23;;;;;;;3.47;2.60;;;;;;;18.12;100.00;97993.53;5154817;27;20216;-67
2021/09/16 01:02:50;;;;;;;2.50;2.30;;;;;;;18.17;100.00;97992.06;5156128;27;20220;-67
2021/09/16 01:05:18;;;;;;;2.97;2.67;;;;;;;18.23;100.00;97994.09;5156296;27;20241;-67
2021/09/16 01:07:45;;;;;;;2.50;2.30;;;;;;;18.27;100.00;97987.47;5156189;27;20243;-67
2021/09/16 01:10:13;;;;;;;3.03;2.30;;;;;;;18.33;100.00;97986.84;5155923;27;20205;-67
2021/09/16 01:12:41;;;;;;;2.27;2.07;;;;;;;18.41;100.00;97991.44;5156032;27;20217;-67
2021/09/16 01:15:10;;;;;;;2.73;2.20;;;;;;;18.43;100.00;98000.13;5156038;27;20209;-67
2021/09/16 01:17:37;;;;;;;3.00;2.47;;;;;;;18.44;100.00;97997.31;5154097;27;20224;-67
2021/09/16 01:20:05;;;;;;;2.23;1.93;;;;;;;18.44;100.00;97997.31;5155801;27;20205;-67
2021/09/16 01:22:33;;;;;;;2.23;2.00;;;;;;;18.46;100.00;97997.97;5155961;27;20205;-66
2021/09/16 01:25:00;;;;;;;2.50;2.30;;;;;;;18.49;100.00;98000.34;5155562;27;20216;-67
2021/09/16 01:27:26;;;;;;;2.30;2.07;;;;;;;18.52;100.00;97994.66;5155655;27;20239;-67
2021/09/16 01:29:53;;;;;;;2.33;2.00;;;;;;;18.54;100.00;97992.66;5155390;27;20231;-66
2021/09/16 01:32:19;;;;;;;2.43;2.23;;;;;;;18.54;100.00;97998.00;5155540;27;20215;-66
2021/09/16 01:34:46;;;;;;;3.37;1.97;;;;;;;18.54;100.00;97992.66;5155608;27;20209;-67
2021/09/16 01:37:12;;;;;;;1.70;1.60;;;;;;;18.56;100.00;97998.72;5151152;27;20230;-67
2021/09/16 01:39:40;;;;;;;2.27;2.00;;;;;;;18.59;100.00;97993.03;5155545;27;20224;-67
2021/09/16 01:42:07;;;;;;;1.80;1.60;;;;;;;18.60;100.00;97999.25;5155114;27;20220;-67
2021/09/16 01:44:34;;;;;;;1.60;1.50;;;;;;;18.59;100.00;97990.34;5153748;27;20213;-67
2021/09/16 01:47:02;;;;;;;1.60;1.50;;;;;;;18.56;100.00;97993.38;5155350;27;20236;-66
2021/09/16 01:49:29;;;;;;;1.53;1.43;;;;;;;18.56;100.00;97982.66;5155117;27;20247;-66
2021/09/16 01:51:55;;;;;;;1.50;1.40;;;;;;;18.57;100.00;97986.16;5155200;27;20208;-67
2021/09/16 01:54:22;;;;;;;1.57;1.40;;;;;;;18.56;100.00;97985.34;5150817;27;20204;-67
2021/09/16 01:56:50;;;;;;;2.00;1.47;;;;;;;18.49;100.00;97984.28;5155298;27;20216;-66
2021/09/16 01:59:16;;;;;;;1.67;1.23;;;;;;;18.35;100.00;97979.50;5155131;27;20209;-67
2021/09/16 02:01:43;;;;;;;1.83;1.50;;;;;;;18.23;100.00;97978.06;5154798;27;20215;-66
2021/09/16 02:04:09;;;;;;;2.27;1.60;;;;;;;18.14;100.00;97970.97;5154732;27;20248;-67
2021/09/16 02:06:36;;;;;;;2.17;1.77;;;;;;;18.07;100.00;97979.78;5154974;27;20236;-67
2021/09/16 02:09:02;;;;;;;2.07;1.50;;;;;;;18.04;100.00;97978.25;5154290;27;20208;-66
2021/09/16 02:11:29;;;;;;;1.97;1.67;;;;;;;18.01;100.00;97973.22;5153983;27;20212;-67
2021/09/16 02:13:57;;;;;;;2.73;1.60;;;;;;;17.94;100.00;97972.19;5152446;27;20671;-66
2021/09/16 02:16:23;;;;;;;2.00;1.80;;;;;;;17.91;100.00;97969.81;5146782;27;20212;-66
2021/09/16 02:18:50;;;;;;;1.80;1.70;;;;;;;17.91;100.00;97966.31;5154893;27;20212;-66
2021/09/16 02:21:16;;;;;;;2.10;1.60;;;;;;;17.90;100.00;97962.78;5154925;27;20213;-66
2021/09/16 02:23:43;;;;;;;3.23;1.47;;;;;;;17.91;100.00;97958.28;5154900;27;20213;-66
2021/09/16 02:26:09;;;;;;;1.63;1.53;;;;;;;17.92;100.00;97963.44;5154756;27;20256;-67
2021/09/16 02:28:36;;;;;;;1.70;1.60;;;;;;;17.93;100.00;97965.13;5154730;27;20232;-66
2021/09/16 02:31:04;;;;;;;1.53;1.43;;;;;;;17.92;100.00;97958.09;5154831;27;20209;-66
2021/09/16 02:33:32;;;;;;;3.30;1.70;;;;;;;17.89;100.00;97958.44;5154788;27;20290;-67
2021/09/16 02:35:59;;;;;;;1.43;1.33;;;;;;;17.88;100.00;97959.44;5152792;27;20219;-67
2021/09/16 02:38:25;;;;;;;1.47;1.37;;;;;;;17.87;100.00;97965.75;5154689;27;20208;-67
2021/09/16 02:40:52;;;;;;;4.20;1.40;;;;;;;17.86;100.00;97952.56;5154340;27;20215;-67
2021/09/16 02:43:18;;;;;;;3.17;1.57;;;;;;;17.85;100.00;97946.34;5154683;27;20223;-67
2021/09/16 02:45:45;;;;;;;2.97;1.50;;;;;;;17.85;100.00;97949.03;5154312;27;20682;-67
2021/09/16 02:48:13;;;;;;;2.43;1.40;;;;;;;17.84;100.00;97950.03;5154247;27;20378;-66
2021/09/16 02:50:40;;;;;;;1.73;1.50;;;;;;;17.85;100.00;97962.41;5154409;27;20219;-67
2021/09/16 02:53:06;;;;;;;1.70;1.60;;;;;;;17.87;100.00;97944.34;5151674;27;20223;-66
2021/09/16 02:55:33;;;;;;;1.90;1.70;;;;;;;17.85;100.00;97945.53;5144824;27;20216;-66
2021/09/16 02:57:59;;;;;;;1.60;1.50;;;;;;;17.85;100.00;97950.88;5154562;27;20209;-67
2021/09/16 03:00:26;;;;;;;2.33;1.60;;;;;;;17.84;100.00;97950.03;5154126;27;20220;-66
2021/09/16 03:02:52;;;;;;;2.30;1.87;;;;;;;17.82;100.00;97946.69;5152461;27;20215;-67
2021/09/16 03:05:20;;;;;;;2.23;2.03;;;;;;;17.82;100.00;97944.00;5154135;27;20260;-66
2021/09/16 03:07:46;;;;;;;2.33;1.80;;;;;;;17.80;100.00;97942.47;5154077;27;20607;-66
2021/09/16 03:10:13;;;;;;;3.07;1.90;;;;;;;17.81;100.00;97953.00;5154416;27;20219;-67
2021/09/16 03:12:40;;;;;;;2.30;2.10;;;;;;;17.81;100.00;97942.31;5156371;27;20204;-66
2021/09/16 03:15:07;;;;;;;2.70;2.00;;;;;;;17.82;100.00;97945.84;5158132;27;20598;-66
2021/09/16 03:17:34;;;;;;;2.27;1.93;;;;;;;17.82;100.00;97944.00;5158098;27;20739;-66
2021/09/16 03:20:01;;;;;;;2.27;2.07;;;;;;;17.85;100.00;97945.53;5158365;27;20212;-68
2021/09/16 03:22:29;;;;;;;2.30;2.10;;;;;;;17.86;100.00;97941.88;5158050;27;20209;-66
2021/09/16 03:24:55;;;;;;;2.20;2.00;;;;;;;17.88;100.00;97942.53;5158203;27;20227;-67
2021/09/16 03:27:21;;;;;;;3.37;2.27;;;;;;;17.90;100.00;97938.72;5156280;27;20353;-67
2021/09/16 03:29:48;;;;;;;2.10;1.90;;;;;;;17.95;100.00;97936.41;5158119;27;20215;-67
2021/09/16 03:32:14;;;;;;;2.67;2.13;;;;;;;17.96;100.00;97932.75;5158176;27;20220;-67
2021/09/16 03:34:41;;;;;;;3.13;2.50;;;;;;;17.98;100.00;97935.28;5158032;27;20216;-67
2021/09/16 03:37:07;;;;;;;2.77;2.37;;;;;;;17.98;100.00;97936.09;5158065;27;20209;-67
2021/09/16 03:39:35;;;;;;;2.30;2.10;;;;;;;18.00;100.00;97934.13;5158094;27;20205;-67
2021/09/16 03:42:02;;;;;;;2.93;2.30;;;;;;;17.95;100.00;97941.78;5157997;27;20215;-66
2021/09/16 03:44:28;;;;;;;3.33;2.13;;;;;;;17.83;100.00;97948.34;5157933;27;20205;-67
2021/09/16 03:46:55;;;;;;;3.23;2.77;;;;;;;17.75;100.00;97945.59;5157737;27;20212;-66
2021/09/16 03:49:21;;;;;;;2.97;2.37;;;;;;;17.69;100.00;97948.88;5157415;27;20209;-66
2021/09/16 03:51:48;;;;;;;4.07;2.90;;;;;;;17.66;100.00;97946.53;5157722;27;20212;-67
2021/09/16 03:54:14;;;;;;;3.87;2.73;;;;;;;17.62;100.00;97939.81;5151811;27;20223;-66
2021/09/16 03:56:42;;;;;;;3.20;2.57;;;;;;;17.60;100.00;97943.63;5157663;27;20213;-66
2021/09/16 03:59:09;;;;;;;3.17;2.83;;;;;;;17.56;100.00;97935.09;5157536;27;20216;-66
2021/09/16 04:01:35;;;;;;;3.70;2.97;;;;;;;17.57;100.00;97943.94;5157591;27;20219;-66
2021/09/16 04:04:02;;;;;;;3.23;2.93;;;;;;;17.57;100.00;97947.47;5153021;27;20243;-66
2021/09/16 04:06:28;;;;;;;3.80;3.30;;;;;;;17.57;100.00;97950.16;5157461;27;20209;-66
2021/09/16 04:08:54;;;;;;;3.57;3.20;;;;;;;17.59;100.00;97949.97;5156949;27;20243;-66
2021/09/16 04:11:21;;;;;;;4.30;3.13;;;;;;;17.59;100.00;97940.13;5157281;27;20581;-66
2021/09/16 04:13:49;;;;;;;4.30;3.40;;;;;;;17.59;100.00;97945.47;5157267;27;20216;-66
2021/09/16 04:16:15;;;;;;;4.70;3.67;;;;;;;17.60;100.00;97941.81;5156991;27;20209;-66
2021/09/16 04:18:42;;;;;;;4.10;3.20;;;;;;;17.60;100.00;97936.47;5157287;27;20209;-66
2021/09/16 04:21:08;;;;;;;3.90;3.40;;;;;;;17.61;100.00;97940.81;5155167;27;20213;-66
2021/09/16 04:23:35;;;;;;;5.03;3.43;;;;;;;17.59;100.00;97940.13;5157013;27;20209;-66
2021/09/16 04:26:01;;;;;;;4.57;4.00;;;;;;;17.61;100.00;97943.47;5156723;27;20224;-67
2021/09/16 04:28:28;;;;;;;3.90;3.10;;;;;;;17.60;100.00;97940.97;5156646;27;20228;-66
2021/09/16 04:30:55;;;;;;;6.13;4.40;;;;;;;17.63;100.00;97941.50;5156645;27;20212;-67
2021/09/16 04:33:22;;;;;;;5.50;4.20;;;;;;;17.61;100.00;97943.47;5156875;27;20204;-66
2021/09/16 04:35:48;;;;;;;4.20;3.70;;;;;;;17.61;100.00;97951.50;5156664;27;20220;-67
2021/09/16 04:38:15;;;;;;;4.40;3.77;;;;;;;17.63;100.00;97952.19;5156962;27;20215;-67
2021/09/16 04:40:41;;;;;;;5.17;4.20;;;;;;;17.66;100.00;97946.53;5156461;27;20632;-67
2021/09/16 04:43:08;;;;;;;4.87;3.90;;;;;;;17.69;100.00;97956.09;5156271;27;20208;-67
2021/09/16 04:45:35;;;;;;;5.10;4.00;;;;;;;17.71;100.00;97949.59;5148164;27;20602;-67
2021/09/16 04:48:03;;;;;;;4.63;4.03;;;;;;;17.73;100.00;97952.94;5156232;27;20799;-66
2021/09/16 04:50:30;;;;;;;6.87;3.87;;;;;;;17.73;100.00;97952.94;5156606;27;20209;-66
2021/09/16 04:52:56;;;;;;;6.63;3.20;;;;;;;17.74;100.00;97964.50;5155312;27;20216;-66
2021/09/16 04:55:23;;;;;;;4.97;3.33;;;;;;;17.72;100.00;97961.09;5145349;27;20223;-66
2021/09/16 04:57:49;;;;;;;3.40;3.00;;;;;;;17.70;100.00;97955.94;5156203;27;20221;-67
2021/09/16 05:00:16;;;;;;;3.97;3.57;;;;;;;17.72;100.00;97956.63;5156322;27;20208;-66
2021/09/16 05:02:42;;;;;;;5.03;3.43;;;;;;;17.74;100.00;97964.50;5156126;27;20213;-66
2021/09/16 05:05:11;;;;;;;4.00;3.30;;;;;;;17.73;100.00;97966.31;5155792;27;20243;-66
2021/09/16 05:07:38;;;;;;;3.97;3.20;;;;;;;17.76;100.00;97965.16;5156182;27;20663;-66
2021/09/16 05:10:05;;;;;;;3.77;3.03;;;;;;;17.75;100.00;97964.31;5155877;27;20223;-66
2021/09/16 05:12:32;;;;;;;3.63;2.97;;;;;;;17.76;100.00;97974.03;5154153;27;20667;-66
2021/09/16 05:14:58;;;;;;;3.80;3.03;;;;;;;17.80;100.00;97970.03;5155893;27;20212;-66
2021/09/16 05:17:25;;;;;;;5.77;3.50;;;;;;;17.79;100.00;97973.72;5156167;27;20212;-66
2021/09/16 05:19:53;;;;;;;4.70;3.33;;;;;;;17.75;100.00;97979.53;5155936;27;20212;-66
2021/09/16 05:22:20;;;;;;;3.23;2.93;;;;;;;17.72;100.00;97979.81;5155576;27;20663;-66
2021/09/16 05:24:47;;;;;;;4.73;3.53;;;;;;;17.69;100.00;97985.50;5155835;27;20204;-66
2021/09/16 05:27:18;;;;;;;3.97;3.57;;;;;;;17.71;100.00;97979.00;5155856;27;20211;-66
2021/09/16 05:29:45;;;;;;;3.53;3.03;;;;;;;17.63;100.00;97978.91;5155706;27;20216;-68
2021/09/16 05:32:12;;;;;;;4.33;3.27;;;;;;;17.56;100.00;97977.84;5155592;27;20216;-67
2021/09/16 05:34:38;;;;;;;4.03;3.00;;;;;;;17.53;100.00;97970.16;5155272;27;20216;-66
2021/09/16 05:37:05;;;;;;;3.60;3.10;;;;;;;17.51;100.00;97977.50;5155037;27;20220;-67
2021/09/16 05:39:33;;;;;;;4.07;3.30;;;;;;;17.52;100.00;97973.81;5154917;27;20577;-67
2021/09/16 05:41:59;;;;;;;5.00;3.50;;;;;;;17.53;100.00;97972.81;5151108;27;20209;-67
2021/09/16 05:44:25;;;;;;;4.43;3.67;;;;;;;17.57;100.00;97979.56;5155642;27;20582;-66
2021/09/16 05:46:52;;;;;;;5.17;4.00;;;;;;;17.59;100.00;97977.56;5155517;27;20217;-67
2021/09/16 05:49:18;;;;;;;5.67;3.77;;;;;;;17.55;100.00;97976.16;5155096;27;20232;-67
2021/09/16 05:51:45;;;;;;;4.83;3.70;;;;;;;17.52;100.00;97981.84;5155386;27;20215;-67
2021/09/16 05:54:11;;;;;;;4.63;3.53;;;;;;;17.56;100.00;97982.38;5150552;27;20205;-67
2021/09/16 05:56:39;;;;;;;4.90;3.87;;;;;;;17.60;100.00;97983.72;5155431;27;20221;-67
2021/09/16 05:59:06;;;;;;;4.13;3.70;;;;;;;17.63;100.00;97978.91;5150623;27;20209;-67
2021/09/16 06:01:32;;;;;;;4.93;3.57;;;;;;;17.66;100.00;97983.97;5155035;27;20219;-67
2021/09/16 06:03:59;;;;;;;5.20;3.73;;;;;;;17.67;100.00;97977.63;5153293;27;20220;-67
2021/09/16 06:06:25;;;;;;;4.50;3.70;;;;;;;17.70;100.00;97985.34;5155142;27;20205;-67
2021/09/16 06:08:51;;;;;;;4.73;3.73;;;;;;;17.73;100.00;97985.03;5154788;27;20237;-67
2021/09/16 06:11:18;;;;;;;3.80;3.37;;;;;;;17.76;100.00;97978.53;5154962;27;20213;-67
2021/09/16 06:13:46;;;;;;;4.00;3.20;;;;;;;17.78;100.00;97980.06;5154787;27;20215;-67
2021/09/16 06:16:12;;;;;;;3.87;3.13;;;;;;;17.81;100.00;97982.41;5153950;27;20208;-67
2021/09/16 06:18:39;;;;;;;3.73;3.27;;;;;;;17.81;100.00;97977.06;5149906;27;20231;-67
2021/09/16 06:21:05;;;;;;;5.20;3.77;;;;;;;17.81;100.00;97984.25;5154643;27;20487;-67
2021/09/16 06:23:32;;;;;;;3.87;3.33;;;;;;;17.82;100.00;97989.47;5154816;27;20209;-67
2021/09/16 06:25:59;;;;;;;4.03;3.07;;;;;;;17.85;100.00;97983.78;5154481;27;20212;-67
2021/09/16 06:28:25;;;;;;;4.53;3.50;;;;;;;17.93;100.00;97996.41;5154364;27;20599;-67
2021/09/16 06:30:53;;;;;;;4.27;3.60;;;;;;;17.91;100.00;97995.72;5152356;27;20213;-67
2021/09/16 06:33:20;;;;;;;5.37;3.53;;;;;;;17.91;100.00;97996.53;5151969;27;20208;-67
2021/09/16 06:35:46;;;;;;;4.90;3.50;;;;;;;17.93;100.00;97997.22;5152415;27;20216;-67
2021/09/16 06:38:13;;;;;;;4.13;3.40;;;;;;;17.95;100.00;98003.28;5153265;27;20213;-67
2021/09/16 06:40:39;;;;;;;3.43;3.13;;;;;;;17.93;100.00;98002.56;5153262;27;20698;-66
2021/09/16 06:43:06;;;;;;;4.37;3.60;;;;;;;17.98;100.00;98005.63;5141320;27;20211;-70
2021/09/16 06:45:33;;;;;;;4.10;3.47;;;;;;;18.02;100.00;97996.31;5138530;27;20228;-68
2021/09/16 06:48:00;;;;;;;5.50;3.53;;;;;;;18.00;100.00;98011.69;5140702;27;20616;-67
2021/09/16 06:50:27;;;;;;;3.33;3.03;;;;;;;17.99;100.00;98012.66;5143065;27;20621;-66
2021/09/16 06:52:54;;;;;;;3.60;3.30;;;;;;;17.97;100.00;98014.63;5145440;27;20214;-66
2021/09/16 06:55:20;;;;;;;4.20;3.20;;;;;;;17.98;100.00;98010.97;5143436;27;20219;-65
2021/09/16 06:57:47;;;;;;;4.00;3.60;;;;;;;18.00;100.00;98014.34;5151801;27;20677;-68
2021/09/16 07:00:15;;;;;;;4.37;3.90;;;;;;;18.04;100.00;98020.22;5155128;27;20219;-68
2021/09/16 07:02:41;;;;;;;5.97;4.20;;;;;;;18.07;100.00;98020.75;5152893;27;20217;-68
2021/09/16 07:05:11;;;;;;;4.30;3.53;;;;;;;18.07;100.00;98027.94;5155139;27;20235;-68
2021/09/16 07:07:37;;;;;;;6.33;4.03;;;;;;;18.02;100.00;98028.41;5155336;27;20219;-68
2021/09/16 07:10:04;;;;;;;5.53;4.00;;;;;;;17.96;100.00;98028.16;5155254;27;20242;-67
2021/09/16 07:12:31;;;;;;;4.27;3.53;;;;;;;17.93;100.00;98029.31;5152927;27;20215;-67
2021/09/16 07:14:58;;;;;;;4.60;3.77;;;;;;;17.97;100.00;98025.34;5154643;27;20227;-67
2021/09/16 07:17:25;;;;;;;5.40;4.40;;;;;;;17.99;100.00;98034.03;5154807;27;20212;-67
2021/09/16 07:19:51;;;;;;;4.77;4.13;;;;;;;18.06;100.00;98026.25;5154867;27;20208;-67
2021/09/16 07:22:19;;;;;;;5.23;4.03;;;;;;;18.12;100.00;98039.84;5151212;27;20219;-67
2021/09/16 07:24:46;;;;;;;9.73;4.33;;;;;;;18.17;100.00;98032.19;5154176;27;20209;-67
2021/09/16 07:27:12;;;;;;;7.13;5.90;;;;;;;18.15;100.00;98038.69;5155099;27;20209;-68
2021/09/16 07:29:39;;;;;;;9.37;7.47;;;;;;;18.11;100.00;98043.50;5154811;27;20236;-67
2021/09/16 07:32:06;;;;;;;11.07;8.40;;;;;;;18.02;100.00;98041.78;5153247;27;20209;-67
2021/09/16 07:34:32;;;;;;;13.63;9.87;;;;;;;17.93;100.00;98042.69;5153716;27;20210;-68
2021/09/16 07:36:59;;;;;;;10.57;9.00;;;;;;;17.92;100.00;98041.00;5153957;27;20219;-66
2021/09/16 07:39:27;;;;;;;11.43;8.90;;;;;;;17.87;100.00;98040.63;5154362;27;20734;-67
2021/09/16 07:41:54;;;;;;;13.93;10.27;;;;;;;17.82;100.00;98053.63;5143763;27;20215;-69
2021/09/16 07:44:20;;;;;;;15.63;10.60;;;;;;;17.72;100.00;98058.19;5143847;27;20213;-69
2021/09/16 07:46:47;;;;;;;16.40;11.47;;;;;;;17.72;100.00;98057.34;5142464;27;20213;-69
2021/09/16 07:49:14;;;;;;;12.83;10.77;;;;;;;17.76;100.00;98058.72;5140324;27;20229;-69
2021/09/16 07:51:41;;;;;;;11.87;9.93;;;;;;;17.62;100.00;98065.44;5145780;27;20224;-69
2021/09/16 07:54:11;;;;;;;13.00;10.40;;;;;;;17.62;100.00;98083.31;5143609;27;20217;-69
2021/09/16 07:56:39;;;;;;;13.73;10.47;;;;;;;17.56;100.00;98074.06;5152407;27;20611;-69
2021/09/16 07:59:05;;;;;;;16.53;12.33;;;;;;;17.53;100.00;98078.84;5153820;27;20239;-69
2021/09/16 08:01:32;;;;;;;14.23;11.00;;;;;;;17.46;100.00;98086.66;5143185;27;20673;-69
2021/09/16 08:03:58;;;;;;;15.73;12.17;;;;;;;17.38;100.00;98091.88;5143513;27;20212;-69
2021/09/16 08:06:25;;;;;;;18.90;12.47;;;;;;;17.33;100.00;98093.28;5142173;27;20209;-70
2021/09/16 08:08:51;;;;;;;15.07;11.33;;;;;;;17.32;100.00;98103.13;5142063;27;20229;-70
2021/09/16 08:11:18;;;;;;;17.30;12.80;;;;;;;17.30;100.00;98110.47;5145026;27;20213;-64
2021/09/16 08:13:46;;;;;;;14.67;11.60;;;;;;;17.19;100.00;98102.63;5143854;27;20212;-62
2021/09/16 08:16:12;;;;;;;16.73;12.23;;;;;;;17.23;100.00;98106.69;5140301;27;20223;-62
2021/09/16 08:18:39;;;;;;;18.03;12.10;;;;;;;17.21;100.00;98105.16;5141853;27;20217;-60
2021/09/16 08:21:05;;;;;;;18.67;12.40;;;;;;;17.16;100.00;98092.25;5144609;27;20224;-61
2021/09/16 08:23:32;;;;;;;15.13;11.20;;;;;;;17.12;100.00;98095.38;5144005;27;20212;-60
2021/09/16 08:25:58;;;;;;;18.10;12.13;;;;;;;17.07;100.00;98098.47;5141319;27;20217;-61
2021/09/16 08:28:25;;;;;;;12.00;9.60;;;;;;;17.10;100.00;98103.53;5141585;27;20225;-61
2021/09/16 08:30:54;;;;;;;10.30;7.53;;;;;;;17.01;100.00;98104.41;5144319;27;20219;-60
2021/09/16 08:33:21;;;;;;;5.90;5.10;;;;;;;16.90;100.00;98112.63;5149896;27;20212;-60
2021/09/16 08:35:48;;;;;;;5.90;4.90;;;;;;;16.86;100.00;98115.69;5141165;27;20701;-60
2021/09/16 08:38:15;;;;;;;5.17;4.60;;;;;;;16.83;100.00;98116.00;5141450;27;20216;-61
2021/09/16 08:40:42;;;;;;;6.90;5.60;;;;;;;16.81;100.00;98134.81;5143888;27;20237;-60
2021/09/16 08:43:09;;;;;;;7.07;5.27;;;;;;;16.74;100.00;98128.38;5142262;27;20216;-60
2021/09/16 08:45:35;;;;;;;7.33;5.67;;;;;;;16.70;100.00;98121.63;5141260;27;20208;-60
2021/09/16 08:48:04;;;;;;;7.10;5.70;;;;;;;16.68;100.00;98123.63;5141165;27;20220;-60
2021/09/16 08:50:31;;;;;;;6.30;5.67;;;;;;;16.65;100.00;98129.22;5143456;27;20236;-60
2021/09/16 08:52:58;;;;;;;8.97;7.40;;;;;;;16.61;100.00;98133.19;5144531;27;20215;-61
2021/09/16 08:55:27;;;;;;;8.53;7.33;;;;;;;16.61;100.00;98125.19;5150186;27;20688;-60
2021/09/16 08:57:57;;;;;;;9.53;7.57;;;;;;;16.61;100.00;98130.53;5152300;27;20211;-61
2021/09/16 09:00:24;;;;;;;11.87;9.50;;;;;;;16.63;100.00;98141.88;5153012;27;20215;-61
2021/09/16 09:02:52;;;;;;;11.60;9.77;;;;;;;16.66;100.00;98136.28;5150309;27;20303;-61
2021/09/16 09:05:20;;;;;;;12.70;10.60;;;;;;;16.69;100.00;98135.97;5150359;27;20252;-59
2021/09/16 09:07:49;;;;;;;14.33;11.13;;;;;;;16.71;100.00;98147.34;5141138;27;20294;-59
2021/09/16 09:10:35;;;;;;;13.70;11.23;;;;;;;16.69;100.00;98143.13;5141216;27;20448;-59
2021/09/16 09:13:03;;;;;;;15.17;11.93;;;;;;;16.58;100.00;98144.13;5141799;27;20681;-59
2021/09/16 09:15:30;;;;;;;16.37;12.47;;;;;;;16.53;100.00;98146.38;5152545;27;20207;-59
2021/09/16 09:18:05;;;;;;;16.70;13.13;;;;;;;16.55;100.00;98149.78;5152496;27;20215;-59
2021/09/16 09:20:34;;;;;;;15.33;11.47;;;;;;;16.60;100.00;98154.66;5149618;27;20212;-59
2021/09/16 09:23:00;;;;;;;14.33;11.63;;;;;;;16.55;100.00;98152.44;5152573;27;20208;-58
2021/09/16 09:25:29;;;;;;;18.73;14.80;;;;;;;16.56;100.00;98156.78;5152379;27;20677;-59
2021/09/16 09:27:56;;;;;;;17.93;14.07;;;;;;;16.54;100.00;98153.44;5152522;27;20223;-58
2021/09/16 09:30:25;;;;;;;17.20;13.27;;;;;;;16.52;100.00;98147.38;5148647;27;20274;-58
2021/09/16 09:32:54;;;;;;;17.47;13.50;;;;;;;16.51;100.00;98151.03;5140429;27;20217;-59
2021/09/16 09:35:27;;;;;;;20.20;14.27;;;;;;;16.50;100.00;98157.34;5138548;27;20216;-59
2021/09/16 09:37:55;;;;;;;17.50;13.53;;;;;;;16.47;100.00;98154.94;5144002;27;20211;-59
2021/09/16 09:40:26;;;;;;;16.87;12.70;;;;;;;16.49;100.00;98161.00;5141397;27;20211;-59
2021/09/16 09:42:53;;;;;;;14.87;10.70;;;;;;;16.52;100.00;98166.03;5140312;27;20217;-59
2021/09/16 09:45:19;;;;;;;14.20;11.33;;;;;;;16.57;100.00;98154.97;5140285;27;20585;-59
2021/09/16 09:47:48;;;;;;;13.27;9.77;;;;;;;16.65;100.00;98163.09;5144175;27;20212;-60
2021/09/16 09:50:20;;;;;;;12.33;9.40;;;;;;;16.66;100.00;98165.63;5141143;27;20241;-59
2021/09/16 09:52:47;;;;;;;9.77;7.97;;;;;;;16.65;100.00;98169.25;5144193;27;20212;-59
2021/09/16 09:55:16;;;;;;;9.23;7.23;;;;;;;16.64;100.00;98175.59;5149120;27;20668;-59
2021/09/16 09:57:43;;;;;;;10.43;7.67;;;;;;;16.65;100.00;98163.09;5151998;27;20216;-59
2021/09/16 10:00:12;;;;;;;9.47;8.10;;;;;;;16.69;100.00;98162.66;5148643;27;20236;-60
2021/09/16 10:02:45;;;;;;;10.73;8.43;;;;;;;16.76;100.00;98169.09;5149805;27;20674;-59
2021/09/16 10:05:23;;;;;;;8.67;7.60;;;;;;;16.74;100.00;98176.44;5151771;27;20606;-61
2021/09/16 10:07:51;;;;;;;11.10;8.50;;;;;;;16.72;100.00;98170.41;5149665;27;20208;-61
2021/09/16 10:10:20;;;;;;;16.33;11.10;;;;;;;16.67;100.00;98166.44;5151441;27;20327;-61
2021/09/16 10:12:48;;;;;;;13.70;10.67;;;;;;;16.57;100.00;98163.81;5151794;27;20550;-61
2021/09/16 10:15:17;;;;;;;12.70;10.17;;;;;;;16.52;100.00;98166.03;5150488;27;20212;-61
2021/09/16 10:17:45;;;;;;;14.90;10.73;;;;;;;16.42;100.00;98165.22;5146514;27;20609;-61
2021/09/16 10:20:13;;;;;;;14.50;10.30;;;;;;;16.42;100.00;98165.22;5151505;27;20212;-61
2021/09/16 10:22:41;;;;;;;15.27;10.03;;;;;;;16.46;100.00;98163.94;5151500;27;20217;-61
2021/09/16 10:25:08;;;;;;;12.37;9.37;;;;;;;16.45;100.00;98164.94;5140468;27;20674;-61
2021/09/16 10:27:39;;;;;;;13.13;9.57;;;;;;;16.47;100.00;98162.97;5145864;27;20221;-61
2021/09/16 10:30:42;;;;;;;12.87;9.43;;;;;;;16.51;100.00;98171.56;5149869;27;20240;-61
2021/09/16 10:33:14;;;;;;;12.83;9.50;;;;;;;16.57;100.00;98177.16;5141516;27;20616;-61
2021/09/16 10:35:43;;;;;;;12.23;9.30;;;;;;;16.49;100.00;98170.81;5140774;27;20701;-61
2021/09/16 10:38:28;;;;;;;12.10;10.07;;;;;;;16.53;100.00;98167.72;5151669;27;20223;-61
2021/09/16 10:41:19;;;;;;;13.13;10.07;;;;;;;16.70;100.00;98171.53;5140682;27;20404;-61
2021/09/16 10:43:50;;;;;;;12.03;9.60;;;;;;;16.84;100.00;98177.25;5142804;27;20216;-61
2021/09/16 10:46:25;;;;;;;11.30;9.10;;;;;;;16.94;100.00;98177.25;5151481;27;20223;-61
2021/09/16 10:48:52;;;;;;;12.93;9.33;;;;;;;17.02;100.00;98183.50;5141288;27;20223;-61
2021/09/16 10:51:37;;;;;;;10.57;9.33;;;;;;;17.07;100.00;98178.59;5139397;27;20243;-61
2021/09/16 10:54:39;;;;;;;12.63;9.83;;;;;;;16.96;100.00;98180.59;5149593;27;20218;-61
2021/09/16 10:57:07;;;;;;;13.90;10.80;;;;;;;16.92;100.00;98190.72;5145506;27;20219;-61
2021/09/16 11:03:12;;;;;;;13.07;10.07;;;;;;;17.09;100.00;98192.66;5089939;27;20560;-63
2021/09/16 11:05:46;;;;;;;13.20;10.73;;;;;;;17.19;100.00;98193.44;5083651;28;20835;-62
2021/09/16 11:08:14;;;;;;;12.17;10.17;;;;;;;17.22;100.00;98198.50;5090019;28;20222;-63
2021/09/16 11:10:57;;;;;;;14.43;9.53;;;;;;;17.26;100.00;98193.72;5089860;28;20223;-63
2021/09/16 11:13:41;;;;;;;13.13;10.77;;;;;;;17.31;100.00;98202.97;5089989;28;20221;-63
2021/09/16 11:16:09;;;;;;;12.93;9.57;;;;;;;17.36;100.00;98199.84;5089673;28;20260;-64
2021/09/16 11:18:38;;;;;;;14.73;10.80;;;;;;;17.39;100.00;98199.59;5089620;28;20218;-64
2021/09/16 11:21:07;;;;;;;14.90;10.80;;;;;;;17.41;100.00;98203.81;5089842;28;20246;-64
2021/09/16 11:23:41;;;;;;;13.47;10.80;;;;;;;17.39;100.00;98203.13;5087837;28;20672;-64
2021/09/16 11:26:12;;;;;;;12.63;9.60;;;;;;;17.46;100.00;98201.56;5087129;28;20714;-64
2021/09/16 11:28:39;;;;;;;16.90;10.93;;;;;;;17.47;100.00;98197.03;5089684;28;20215;-64